www.cux-wetter.de
Wetterdaten: Woche 25.03.13 - 31.03.13 (KW13)
Datum Zeit Temp. A. Feuchte A. Luftdruck Regen Wind Richtung Sonnenschein Solar Taupunkt Windchill Windben
25.03.2013 00:00 -1,3 C 76 % 1024,5 hPa 0,0 l/m 21,6 km/h (4 Bft) O-SO 0,00 h 0 W/m -4,9 C -12,0 C 21,6 km/h (4 Bft)
25.03.2013 01:00 -1,3 C 77 % 1023,8 hPa 0,0 l/m 29,7 km/h (5 Bft) O-SO 0,00 h 0 W/m -4,8 C -14,9 C 29,7 km/h (5 Bft)
25.03.2013 02:00 -1,5 C 79 % 1023,5 hPa 0,0 l/m 27,9 km/h (5 Bft) O-SO 0,00 h 0 W/m -4,7 C -14,7 C 27,9 km/h (5 Bft)
25.03.2013 03:00 -1,6 C 80 % 1023,5 hPa 0,0 l/m 22,0 km/h (4 Bft) O-SO 0,00 h 0 W/m -4,7 C -12,5 C 22,0 km/h (4 Bft)
25.03.2013 04:00 -1,6 C 80 % 1023,5 hPa 0,0 l/m 24,7 km/h (4 Bft) O-SO 0,00 h 0 W/m -4,6 C -13,7 C 24,7 km/h (4 Bft)
25.03.2013 05:00 -1,5 C 78 % 1023,5 hPa 0,0 l/m 26,7 km/h (4 Bft) O-SO 0,00 h 0 W/m -4,8 C -14,3 C 26,7 km/h (4 Bft)
25.03.2013 06:00 -1,5 C 75 % 1023,5 hPa 0,0 l/m 25,1 km/h (4 Bft) O-SO 0,00 h 0 W/m -5,4 C -13,8 C 25,1 km/h (4 Bft)
25.03.2013 07:00 -1,5 C 71 % 1023,5 hPa 0,0 l/m 23,8 km/h (4 Bft) O-SO 0,00 h 0 W/m -6,1 C -13,2 C 23,8 km/h (4 Bft)
25.03.2013 08:00 -1,4 C 69 % 1024,0 hPa 0,0 l/m 32,0 km/h (5 Bft) SO 0,00 h 0 W/m -6,4 C -15,7 C 32,0 km/h (5 Bft)
25.03.2013 09:00 -0,9 C 65 % 1024,3 hPa 0,0 l/m 31,6 km/h (5 Bft) SO 0,00 h 0 W/m -6,6 C -15,1 C 31,6 km/h (5 Bft)
25.03.2013 10:00 0,9 C 61 % 1023,5 hPa 0,0 l/m 34,8 km/h (5 Bft) SO 0,00 h 0 W/m -5,9 C -13,5 C 34,8 km/h (5 Bft)
25.03.2013 11:00 2,0 C 56 % 1023,3 hPa 0,0 l/m 35,0 km/h (5 Bft) SO 0,00 h 0 W/m -5,9 C -11,9 C 35,0 km/h (5 Bft)
25.03.2013 12:00 3,0 C 52 % 1022,5 hPa 0,0 l/m 33,1 km/h (5 Bft) SO 0,00 h 0 W/m -5,9 C -10,0 C 33,1 km/h (5 Bft)
25.03.2013 13:00 3,7 C 52 % 1022,5 hPa 0,0 l/m 29,6 km/h (5 Bft) SO 0,00 h 0 W/m -5,4 C -8,1 C 29,6 km/h (5 Bft)
25.03.2013 14:00 3,5 C 53 % 1021,5 hPa 0,0 l/m 31,9 km/h (5 Bft) SO 0,00 h 0 W/m -5,3 C -8,9 C 31,9 km/h (5 Bft)
25.03.2013 15:00 3,0 C 54 % 1021,3 hPa 0,0 l/m 33,5 km/h (5 Bft) SO 0,00 h 0 W/m -5,3 C -10,1 C 33,5 km/h (5 Bft)
25.03.2013 16:00 2,3 C 59 % 1020,5 hPa 0,0 l/m 28,8 km/h (5 Bft) O-SO 0,00 h 0 W/m -5,0 C -9,7 C 28,8 km/h (5 Bft)
25.03.2013 17:00 1,5 C 62 % 1020,5 hPa 0,0 l/m 28,6 km/h (5 Bft) O-SO 0,00 h 0 W/m -4,9 C -10,8 C 28,6 km/h (5 Bft)
25.03.2013 18:00 0,8 C 64 % 1020,5 hPa 0,0 l/m 31,6 km/h (5 Bft) O-SO 0,00 h 0 W/m -5,3 C -12,7 C 31,6 km/h (5 Bft)
25.03.2013 19:00 0,2 C 66 % 1020,5 hPa 0,0 l/m 28,0 km/h (5 Bft) O-SO 0,00 h 0 W/m -5,4 C -12,6 C 28,0 km/h (5 Bft)
25.03.2013 20:00 -0,3 C 69 % 1020,5 hPa 0,0 l/m 25,3 km/h (4 Bft) SO 0,00 h 0 W/m -5,3 C -12,1 C 25,3 km/h (4 Bft)
25.03.2013 21:00 -0,4 C 70 % 1020,5 hPa 0,0 l/m 25,8 km/h (4 Bft) O-SO 0,00 h 0 W/m -5,2 C -12,5 C 25,8 km/h (4 Bft)
25.03.2013 22:00 -0,5 C 69 % 1020,5 hPa 0,0 l/m 28,6 km/h (5 Bft) SO 0,00 h 0 W/m -5,4 C -13,6 C 28,6 km/h (5 Bft)
25.03.2013 23:00 -0,8 C 70 % 1020,5 hPa 0,0 l/m 25,3 km/h (4 Bft) O-SO 0,00 h 0 W/m -5,6 C -12,9 C 25,3 km/h (4 Bft)
26.03.2013 00:00 -1,0 C 71 % 1020,5 hPa 0,0 l/m 23,3 km/h (4 Bft) SO 0,00 h 0 W/m -5,7 C -12,4 C 23,3 km/h (4 Bft)
26.03.2013 01:00 -1,2 C 72 % 1020,5 hPa 0,0 l/m 21,4 km/h (4 Bft) O-SO 0,00 h 0 W/m -5,7 C -11,8 C 21,4 km/h (4 Bft)
26.03.2013 02:00 -1,3 C 74 % 1020,5 hPa 0,0 l/m 23,2 km/h (4 Bft) O-SO 0,00 h 0 W/m -5,3 C -12,8 C 23,2 km/h (4 Bft)
26.03.2013 03:00 -1,5 C 77 % 1020,3 hPa 0,0 l/m 19,7 km/h (3 Bft) O 0,00 h 0 W/m -5,0 C -11,4 C 19,7 km/h (3 Bft)
26.03.2013 04:00 -1,6 C 79 % 1019,8 hPa 0,0 l/m 21,7 km/h (4 Bft) O-SO 0,00 h 0 W/m -4,8 C -12,4 C 21,7 km/h (4 Bft)
26.03.2013 05:00 -1,6 C 80 % 1020,3 hPa 0,0 l/m 21,4 km/h (4 Bft) O-SO 0,00 h 0 W/m -4,6 C -12,3 C 21,4 km/h (4 Bft)
26.03.2013 06:00 -1,7 C 80 % 1020,5 hPa 0,0 l/m 18,0 km/h (3 Bft) O 0,00 h 0 W/m -4,7 C -10,7 C 18,0 km/h (3 Bft)
26.03.2013 07:00 -1,0 C 81 % 1020,5 hPa 0,0 l/m 17,5 km/h (3 Bft) O 0,00 h 0 W/m -3,9 C -9,4 C 17,5 km/h (3 Bft)
26.03.2013 08:00 -0,4 C 81 % 1020,5 hPa 0,0 l/m 12,5 km/h (2 Bft) O 0,00 h 0 W/m -3,2 C -5,7 C 12,5 km/h (2 Bft)
26.03.2013 09:00 0,8 C 80 % 1020,0 hPa 0,0 l/m 18,9 km/h (3 Bft) O 0,00 h 0 W/m -2,2 C -8,0 C 18,9 km/h (3 Bft)
26.03.2013 10:00 2,0 C 73 % 1019,5 hPa 0,0 l/m 21,5 km/h (4 Bft) O-SO 0,00 h 0 W/m -2,3 C -7,5 C 21,5 km/h (4 Bft)
26.03.2013 11:00 2,2 C 68 % 1019,5 hPa 0,0 l/m 23,0 km/h (4 Bft) O-SO 0,00 h 0 W/m -3,1 C -7,9 C 23,0 km/h (4 Bft)
26.03.2013 12:00 3,0 C 62 % 1019,5 hPa 0,0 l/m 23,8 km/h (4 Bft) O-SO 0,00 h 0 W/m -3,6 C -7,2 C 23,8 km/h (4 Bft)
26.03.2013 13:00 3,2 C 64 % 1019,0 hPa 0,0 l/m 18,7 km/h (3 Bft) O-SO 0,00 h 0 W/m -2,9 C -5,0 C 18,7 km/h (3 Bft)
26.03.2013 14:00 2,8 C 68 % 1018,5 hPa 0,0 l/m 21,1 km/h (4 Bft) O 0,00 h 0 W/m -2,6 C -6,5 C 21,1 km/h (4 Bft)
26.03.2013 15:00 3,0 C 66 % 1017,8 hPa 0,0 l/m 22,4 km/h (4 Bft) O-SO 0,00 h 0 W/m -2,8 C -6,7 C 22,4 km/h (4 Bft)
26.03.2013 16:00 2,6 C 64 % 1017,5 hPa 0,0 l/m 23,9 km/h (4 Bft) O 0,00 h 0 W/m -3,5 C -7,8 C 23,9 km/h (4 Bft)
26.03.2013 17:00 2,2 C 67 % 1017,5 hPa 0,0 l/m 25,0 km/h (4 Bft) O-SO 0,00 h 0 W/m -3,3 C -8,8 C 25,0 km/h (4 Bft)
26.03.2013 18:00 1,6 C 67 % 1017,5 hPa 0,0 l/m 24,4 km/h (4 Bft) O-SO 0,00 h 0 W/m -4,0 C -9,2 C 24,4 km/h (4 Bft)
26.03.2013 19:00 0,9 C 69 % 1017,5 hPa 0,0 l/m 24,8 km/h (4 Bft) O-SO 0,00 h 0 W/m -4,1 C -10,1 C 24,8 km/h (4 Bft)
26.03.2013 20:00 0,6 C 71 % 1017,5 hPa 0,0 l/m 18,5 km/h (3 Bft) O-SO 0,00 h 0 W/m -4,1 C -7,8 C 18,5 km/h (3 Bft)
26.03.2013 21:00 0,2 C 72 % 1017,5 hPa 0,0 l/m 22,9 km/h (4 Bft) O-SO 0,00 h 0 W/m -4,3 C -10,6 C 22,9 km/h (4 Bft)
26.03.2013 22:00 -0,2 C 72 % 1018,5 hPa 0,0 l/m 17,6 km/h (3 Bft) O-SO 0,00 h 0 W/m -4,6 C -8,6 C 17,6 km/h (3 Bft)
26.03.2013 23:00 -0,5 C 72 % 1017,8 hPa 0,0 l/m 20,7 km/h (4 Bft) O-SO 0,00 h 0 W/m -4,9 C -10,5 C 20,7 km/h (4 Bft)
27.03.2013 00:00 -0,8 C 73 % 1018,0 hPa 0,0 l/m 17,4 km/h (3 Bft) O 0,00 h 0 W/m -4,9 C -9,1 C 17,4 km/h (3 Bft)
27.03.2013 01:00 -1,1 C 75 % 1017,5 hPa 0,0 l/m 15,8 km/h (3 Bft) O-SO 0,00 h 0 W/m -5,0 C -8,7 C 15,8 km/h (3 Bft)
27.03.2013 02:00 -1,3 C 76 % 1017,5 hPa 0,0 l/m 15,3 km/h (3 Bft) O-SO 0,00 h 0 W/m -4,9 C -8,7 C 15,3 km/h (3 Bft)
27.03.2013 03:00 -1,4 C 78 % 1017,5 hPa 0,0 l/m 16,3 km/h (3 Bft) O 0,00 h 0 W/m -4,8 C -9,5 C 16,3 km/h (3 Bft)
27.03.2013 04:00 -1,4 C 80 % 1017,5 hPa 0,0 l/m 16,8 km/h (3 Bft) O-SO 0,00 h 0 W/m -4,4 C -9,7 C 16,8 km/h (3 Bft)
27.03.2013 05:00 -1,5 C 81 % 1017,5 hPa 0,0 l/m 17,3 km/h (3 Bft) O-SO 0,00 h 0 W/m -4,4 C -10,1 C 17,3 km/h (3 Bft)
27.03.2013 06:00 -1,7 C 81 % 1017,5 hPa 0,0 l/m 16,8 km/h (3 Bft) O 0,00 h 0 W/m -4,6 C -10,1 C 16,8 km/h (3 Bft)
27.03.2013 07:00 -1,6 C 81 % 1017,5 hPa 0,0 l/m 17,2 km/h (3 Bft) O-SO 0,00 h 0 W/m -4,5 C -10,2 C 17,2 km/h (3 Bft)
27.03.2013 08:00 -1,2 C 81 % 1017,5 hPa 0,0 l/m 17,5 km/h (3 Bft) O-SO 0,00 h 0 W/m -4,1 C -9,9 C 17,5 km/h (3 Bft)
27.03.2013 09:00 -0,0 C 77 % 1017,5 hPa 0,0 l/m 20,4 km/h (4 Bft) O-SO 0,00 h 0 W/m -3,7 C -9,8 C 20,4 km/h (4 Bft)
27.03.2013 10:00 2,3 C 68 % 1017,5 hPa 0,0 l/m 22,8 km/h (4 Bft) O-SO 0,00 h 0 W/m -2,9 C -7,4 C 22,8 km/h (4 Bft)
27.03.2013 11:00 3,7 C 62 % 1016,5 hPa 0,0 l/m 25,3 km/h (4 Bft) O-SO 0,00 h 0 W/m -3,0 C -6,9 C 25,3 km/h (4 Bft)
27.03.2013 12:00 4,8 C 57 % 1016,5 hPa 0,0 l/m 24,3 km/h (4 Bft) O-SO 0,00 h 0 W/m -2,9 C -4,9 C 24,3 km/h (4 Bft)
27.03.2013 13:00 5,4 C 54 % 1016,0 hPa 0,0 l/m 23,4 km/h (4 Bft) O-SO 0,00 h 0 W/m -3,3 C -3,9 C 23,4 km/h (4 Bft)
27.03.2013 14:00 5,7 C 51 % 1015,5 hPa 0,0 l/m 27,7 km/h (5 Bft) O-SO 0,00 h 0 W/m -3,6 C -4,7 C 27,7 km/h (5 Bft)
27.03.2013 15:00 5,4 C 51 % 1015,5 hPa 0,0 l/m 27,8 km/h (5 Bft) O-SO 0,00 h 0 W/m -3,9 C -5,2 C 27,8 km/h (5 Bft)
27.03.2013 16:00 4,4 C 54 % 1014,8 hPa 0,0 l/m 25,2 km/h (4 Bft) SO 0,00 h 0 W/m -4,1 C -5,7 C 25,2 km/h (4 Bft)
27.03.2013 17:00 3,5 C 58 % 1014,5 hPa 0,0 l/m 25,1 km/h (4 Bft) SO 0,00 h 0 W/m -3,9 C -7,0 C 25,1 km/h (4 Bft)
27.03.2013 18:00 2,6 C 63 % 1015,0 hPa 0,0 l/m 21,3 km/h (4 Bft) O-SO 0,00 h 0 W/m -3,7 C -6,8 C 21,3 km/h (4 Bft)
27.03.2013 19:00 1,6 C 68 % 1015,5 hPa 0,0 l/m 18,0 km/h (3 Bft) O-SO 0,00 h 0 W/m -3,7 C -6,6 C 18,0 km/h (3 Bft)
27.03.2013 20:00 1,1 C 70 % 1015,5 hPa 0,0 l/m 20,7 km/h (4 Bft) O-SO 0,00 h 0 W/m -3,8 C -8,5 C 20,7 km/h (4 Bft)
27.03.2013 21:00 0,8 C 72 % 1015,5 hPa 0,0 l/m 18,5 km/h (3 Bft) O-SO 0,00 h 0 W/m -3,7 C -7,7 C 18,5 km/h (3 Bft)
27.03.2013 22:00 0,4 C 74 % 1015,5 hPa 0,0 l/m 17,5 km/h (3 Bft) O 0,00 h 0 W/m -3,7 C -7,9 C 17,5 km/h (3 Bft)
27.03.2013 23:00 0,0 C 77 % 1015,5 hPa 0,0 l/m 16,3 km/h (3 Bft) O 0,00 h 0 W/m -3,6 C -7,6 C 16,3 km/h (3 Bft)
28.03.2013 00:00 -0,2 C 78 % 1015,5 hPa 0,0 l/m 16,2 km/h (3 Bft) O 0,00 h 0 W/m -3,6 C -7,8 C 16,2 km/h (3 Bft)
28.03.2013 01:00 -0,3 C 79 % 1015,5 hPa 0,0 l/m 15,7 km/h (3 Bft) O 0,00 h 0 W/m -3,5 C -7,7 C 15,7 km/h (3 Bft)
28.03.2013 02:00 -0,4 C 79 % 1014,8 hPa 0,0 l/m 15,8 km/h (3 Bft) O 0,00 h 0 W/m -3,6 C -7,8 C 15,8 km/h (3 Bft)
28.03.2013 03:00 -0,7 C 79 % 1014,5 hPa 0,0 l/m 15,3 km/h (3 Bft) O 0,00 h 0 W/m -3,8 C -7,8 C 15,3 km/h (3 Bft)
28.03.2013 04:00 -0,8 C 79 % 1014,5 hPa 0,0 l/m 14,6 km/h (3 Bft) O 0,00 h 0 W/m -3,9 C -7,7 C 14,6 km/h (3 Bft)
28.03.2013 05:00 -0,8 C 79 % 1014,5 hPa 0,0 l/m 16,6 km/h (3 Bft) O 0,00 h 0 W/m -4,0 C -8,7 C 16,6 km/h (3 Bft)
28.03.2013 06:00 -0,9 C 79 % 1014,3 hPa 0,0 l/m 15,1 km/h (3 Bft) O 0,00 h 0 W/m -4,1 C -8,0 C 15,1 km/h (3 Bft)
28.03.2013 07:00 -0,4 C 78 % 1013,5 hPa 0,0 l/m 15,9 km/h (3 Bft) O-SO 0,00 h 0 W/m -3,7 C -8,0 C 15,9 km/h (3 Bft)
28.03.2013 08:00 0,4 C 76 % 1013,5 hPa 0,0 l/m 18,6 km/h (3 Bft) O-SO 0,00 h 0 W/m -3,4 C -8,5 C 18,6 km/h (3 Bft)
28.03.2013 09:00 1,3 C 71 % 1013,5 hPa 0,0 l/m 16,4 km/h (3 Bft) O-SO 0,00 h 0 W/m -3,4 C -6,2 C 16,4 km/h (3 Bft)
28.03.2013 10:00 2,8 C 65 % 1013,5 hPa 0,0 l/m 19,1 km/h (3 Bft) O-SO 0,00 h 0 W/m -3,0 C -5,5 C 19,1 km/h (3 Bft)
28.03.2013 11:00 4,1 C 59 % 1012,8 hPa 0,0 l/m 18,8 km/h (3 Bft) O-SO 0,00 h 0 W/m -3,3 C -3,7 C 18,8 km/h (3 Bft)
28.03.2013 12:00 4,2 C 59 % 1012,5 hPa 0,0 l/m 24,1 km/h (4 Bft) O-SO 0,00 h 0 W/m -3,1 C -5,6 C 24,1 km/h (4 Bft)
28.03.2013 13:00 4,1 C 60 % 1012,5 hPa 0,0 l/m 21,5 km/h (4 Bft) SO 0,00 h 0 W/m -2,9 C -4,8 C 21,5 km/h (4 Bft)
28.03.2013 14:00 3,9 C 62 % 1012,3 hPa 0,0 l/m 20,0 km/h (4 Bft) O-SO 0,00 h 0 W/m -2,7 C -4,5 C 20,0 km/h (4 Bft)
28.03.2013 15:00 3,1 C 66 % 1011,5 hPa 0,0 l/m 18,8 km/h (3 Bft) O-SO 0,00 h 0 W/m -2,7 C -5,0 C 18,8 km/h (3 Bft)
28.03.2013 16:00 2,5 C 68 % 1011,5 hPa 0,0 l/m 15,3 km/h (3 Bft) O 0,00 h 0 W/m -2,8 C -4,1 C 15,3 km/h (3 Bft)
28.03.2013 17:00 2,1 C 71 % 1011,5 hPa 0,0 l/m 16,4 km/h (3 Bft) O-SO 0,00 h 0 W/m -2,7 C -5,2 C 16,4 km/h (3 Bft)
28.03.2013 18:00 1,4 C 75 % 1011,5 hPa 0,0 l/m 16,1 km/h (3 Bft) O 0,00 h 0 W/m -2,6 C -5,9 C 16,1 km/h (3 Bft)
28.03.2013 19:00 1,0 C 77 % 1011,5 hPa 0,0 l/m 16,2 km/h (3 Bft) O 0,00 h 0 W/m -2,7 C -6,4 C 16,2 km/h (3 Bft)
28.03.2013 20:00 0,7 C 77 % 1011,5 hPa 0,0 l/m 18,4 km/h (3 Bft) O 0,00 h 0 W/m -2,8 C -7,9 C 18,4 km/h (3 Bft)
28.03.2013 21:00 0,6 C 77 % 1011,3 hPa 0,0 l/m 12,9 km/h (3 Bft) O 0,00 h 0 W/m -2,9 C -4,9 C 12,9 km/h (3 Bft)
28.03.2013 22:00 0,3 C 80 % 1010,5 hPa 0,0 l/m 10,3 km/h (2 Bft) O 0,00 h 0 W/m -2,8 C -3,3 C 10,3 km/h (2 Bft)
28.03.2013 23:00 0,3 C 82 % 1010,5 hPa 0,0 l/m 12,8 km/h (3 Bft) O 0,00 h 0 W/m -2,4 C -5,1 C 12,8 km/h (3 Bft)
29.03.2013 00:00 0,3 C 82 % 1010,0 hPa 0,0 l/m 12,9 km/h (3 Bft) O 0,00 h 0 W/m -2,4 C -5,2 C 12,9 km/h (3 Bft)
29.03.2013 01:00 0,3 C 83 % 1009,5 hPa 0,0 l/m 9,6 km/h (2 Bft) O 0,00 h 0 W/m -2,3 C -2,7 C 9,6 km/h (2 Bft)
29.03.2013 02:00 0,2 C 83 % 1009,5 hPa 0,0 l/m 10,2 km/h (2 Bft) O 0,00 h 0 W/m -2,3 C -3,2 C 10,2 km/h (2 Bft)
29.03.2013 03:00 0,2 C 84 % 1008,5 hPa 0,0 l/m 9,1 km/h (2 Bft) O 0,00 h 0 W/m -2,2 C -2,4 C 9,1 km/h (2 Bft)
29.03.2013 04:00 0,1 C 85 % 1008,5 hPa 0,0 l/m 8,2 km/h (2 Bft) O 0,00 h 0 W/m -2,2 C -1,8 C 8,2 km/h (2 Bft)
29.03.2013 05:00 -0,2 C 86 % 1008,5 hPa 0,0 l/m 5,1 km/h (1 Bft) O-NO 0,00 h 0 W/m -2,2 C -0,2 C 5,1 km/h (1 Bft)
29.03.2013 06:00 -0,2 C 86 % 1008,5 hPa 0,0 l/m 6,6 km/h (2 Bft) NO 0,00 h 0 W/m -2,3 C -0,7 C 6,6 km/h (2 Bft)
29.03.2013 07:00 0,2 C 87 % 1008,5 hPa 0,0 l/m 6,5 km/h (2 Bft) O-NO 0,00 h 0 W/m -1,7 C -1,5 C 6,5 km/h (2 Bft)
29.03.2013 08:00 0,6 C 87 % 1008,5 hPa 0,0 l/m 8,1 km/h (2 Bft) O-NO 0,00 h 0 W/m -1,3 C -1,1 C 8,1 km/h (2 Bft)
29.03.2013 09:00 1,0 C 87 % 1008,5 hPa 0,0 l/m 8,3 km/h (2 Bft) O-NO 0,00 h 0 W/m -0,9 C -0,7 C 8,3 km/h (2 Bft)
29.03.2013 10:00 1,7 C 85 % 1008,5 hPa 0,6 l/m 7,9 km/h (2 Bft) O 0,00 h 0 W/m -0,6 C -0,1 C 7,9 km/h (2 Bft)
29.03.2013 11:00 1,8 C 83 % 1007,8 hPa 0,3 l/m 9,1 km/h (2 Bft) O-NO 0,00 h 0 W/m -0,7 C -0,6 C 9,1 km/h (2 Bft)
29.03.2013 12:00 2,0 C 82 % 1007,5 hPa 0,0 l/m 8,9 km/h (2 Bft) O-NO 0,00 h 0 W/m -0,7 C -0,2 C 8,9 km/h (2 Bft)
29.03.2013 13:00 2,2 C 83 % 1007,5 hPa 0,0 l/m 11,8 km/h (2 Bft) NO 0,00 h 0 W/m -0,4 C -2,3 C 11,8 km/h (2 Bft)
29.03.2013 14:00 2,2 C 84 % 1007,5 hPa 0,0 l/m 11,4 km/h (2 Bft) NO 0,00 h 0 W/m -0,2 C -2,1 C 11,4 km/h (2 Bft)
29.03.2013 15:00 2,1 C 84 % 1007,5 hPa 0,3 l/m 8,3 km/h (2 Bft) NO 0,00 h 0 W/m -0,3 C 0,4 C 8,3 km/h (2 Bft)
29.03.2013 16:00 2,0 C 84 % 1007,5 hPa 0,0 l/m 11,8 km/h (2 Bft) O-NO 0,00 h 0 W/m -0,5 C -2,4 C 11,8 km/h (2 Bft)
29.03.2013 17:00 1,8 C 83 % 1007,5 hPa 0,0 l/m 11,4 km/h (2 Bft) O-NO 0,00 h 0 W/m -0,8 C -2,4 C 11,4 km/h (2 Bft)
29.03.2013 18:00 1,5 C 83 % 1007,5 hPa 0,0 l/m 9,0 km/h (2 Bft) O-NO 0,00 h 0 W/m -1,1 C -0,8 C 9,0 km/h (2 Bft)
29.03.2013 19:00 1,4 C 83 % 1007,5 hPa 0,0 l/m 10,8 km/h (2 Bft) O-NO 0,00 h 0 W/m -1,2 C -2,5 C 10,8 km/h (2 Bft)
29.03.2013 20:00 1,4 C 83 % 1007,5 hPa 0,0 l/m 7,7 km/h (2 Bft) NO 0,00 h 0 W/m -1,2 C -0,0 C 7,7 km/h (2 Bft)
29.03.2013 21:00 1,4 C 83 % 1007,5 hPa 0,0 l/m 7,1 km/h (2 Bft) NO 0,00 h 0 W/m -1,3 C 0,3 C 7,1 km/h (2 Bft)
29.03.2013 22:00 1,3 C 82 % 1007,5 hPa 0,0 l/m 4,4 km/h (1 Bft) NO 0,00 h 0 W/m -1,4 C 1,3 C 4,4 km/h (1 Bft)
29.03.2013 23:00 1,3 C 83 % 1007,5 hPa 0,0 l/m 5,9 km/h (2 Bft) NO 0,00 h 0 W/m -1,4 C 1,2 C 5,9 km/h (2 Bft)
30.03.2013 00:00 1,2 C 84 % 1007,5 hPa 0,0 l/m 7,3 km/h (2 Bft) NO 0,00 h 0 W/m -1,3 C -0,2 C 7,3 km/h (2 Bft)
30.03.2013 01:00 1,2 C 84 % 1007,5 hPa 0,0 l/m 6,7 km/h (2 Bft) NO 0,00 h 0 W/m -1,2 C 0,3 C 6,7 km/h (2 Bft)
30.03.2013 02:00 1,1 C 85 % 1007,3 hPa 0,0 l/m 9,0 km/h (2 Bft) NO 0,00 h 0 W/m -1,0 C -1,3 C 9,0 km/h (2 Bft)
30.03.2013 03:00 1,0 C 86 % 1006,8 hPa 0,0 l/m 9,1 km/h (2 Bft) NO 0,00 h 0 W/m -1,0 C -1,5 C 9,1 km/h (2 Bft)
30.03.2013 04:00 1,0 C 87 % 1006,5 hPa 0,0 l/m 2,3 km/h (1 Bft) O-NO 0,00 h 0 W/m -0,9 C 0,8 C 2,3 km/h (1 Bft)
30.03.2013 05:00 1,0 C 87 % 1007,3 hPa 0,0 l/m 3,9 km/h (1 Bft) O-NO 0,00 h 0 W/m -0,9 C 1,0 C 3,9 km/h (1 Bft)
30.03.2013 06:00 1,1 C 87 % 1007,5 hPa 0,0 l/m 0,6 km/h (0 Bft) N 0,00 h 0 W/m -0,8 C 1,1 C 0,6 km/h (0 Bft)
30.03.2013 07:00 1,2 C 87 % 1007,5 hPa 0,0 l/m 0,5 km/h (0 Bft) O-NO 0,00 h 0 W/m -0,7 C 1,2 C 0,5 km/h (0 Bft)
30.03.2013 08:00 1,2 C 87 % 1007,5 hPa 0,0 l/m 5,5 km/h (2 Bft) O-NO 0,00 h 0 W/m -0,7 C 0,8 C 5,5 km/h (2 Bft)
30.03.2013 09:00 1,2 C 87 % 1007,5 hPa 0,0 l/m 7,3 km/h (2 Bft) O-NO 0,00 h 0 W/m -0,7 C -0,1 C 7,3 km/h (2 Bft)
30.03.2013 10:00 1,8 C 86 % 1007,5 hPa 0,0 l/m 11,5 km/h (2 Bft) NO 0,00 h 0 W/m -0,3 C -2,4 C 11,5 km/h (2 Bft)
30.03.2013 11:00 3,9 C 78 % 1007,5 hPa 0,0 l/m 13,0 km/h (3 Bft) NO 0,00 h 0 W/m 0,4 C -1,1 C 13,0 km/h (3 Bft)
30.03.2013 12:00 4,6 C 73 % 1008,3 hPa 0,0 l/m 17,0 km/h (3 Bft) NO 0,00 h 0 W/m 0,2 C -2,4 C 17,0 km/h (3 Bft)
30.03.2013 13:00 5,0 C 69 % 1008,5 hPa 0,0 l/m 19,3 km/h (3 Bft) NO 0,00 h 0 W/m -0,2 C -2,8 C 19,3 km/h (3 Bft)
30.03.2013 14:00 5,0 C 67 % 1008,5 hPa 0,0 l/m 14,5 km/h (3 Bft) NO 0,00 h 0 W/m -0,5 C -0,6 C 14,5 km/h (3 Bft)
30.03.2013 15:00 4,0 C 70 % 1008,5 hPa 0,0 l/m 13,9 km/h (3 Bft) NO 0,00 h 0 W/m -1,0 C -1,5 C 13,9 km/h (3 Bft)
30.03.2013 16:00 3,2 C 72 % 1008,5 hPa 0,0 l/m 12,0 km/h (2 Bft) NO 0,00 h 0 W/m -1,4 C -1,3 C 12,0 km/h (2 Bft)
30.03.2013 17:00 2,7 C 73 % 1008,5 hPa 0,0 l/m 10,8 km/h (2 Bft) NO 0,00 h 0 W/m -1,7 C -1,0 C 10,8 km/h (2 Bft)
30.03.2013 18:00 2,5 C 76 % 1009,5 hPa 0,0 l/m 4,5 km/h (1 Bft) NO 0,00 h 0 W/m -1,4 C 1,4 C 4,5 km/h (1 Bft)
30.03.2013 19:00 2,0 C 78 % 1009,5 hPa 0,0 l/m 8,6 km/h (2 Bft) O-NO 0,00 h 0 W/m -1,5 C -0,0 C 8,6 km/h (2 Bft)
30.03.2013 20:00 1,8 C 80 % 1010,0 hPa 0,0 l/m 8,8 km/h (2 Bft) NO 0,00 h 0 W/m -1,2 C -0,6 C 8,8 km/h (2 Bft)
30.03.2013 21:00 1,5 C 83 % 1010,5 hPa 0,0 l/m 8,6 km/h (2 Bft) NO 0,00 h 0 W/m -1,1 C -0,6 C 8,6 km/h (2 Bft)
30.03.2013 22:00 1,2 C 85 % 1010,5 hPa 0,0 l/m 7,4 km/h (2 Bft) O-NO 0,00 h 0 W/m -1,1 C 0,2 C 7,4 km/h (2 Bft)
30.03.2013 23:00 1,1 C 86 % 1011,3 hPa 0,0 l/m 6,7 km/h (2 Bft) O-NO 0,00 h 0 W/m -1,0 C 0,5 C 6,7 km/h (2 Bft)
31.03.2013 00:00 0,9 C 86 % 1011,5 hPa 0,0 l/m 9,3 km/h (2 Bft) O-NO 0,00 h 0 W/m -1,2 C -1,9 C 9,3 km/h (2 Bft)
31.03.2013 01:00 0,7 C 87 % 1011,5 hPa 0,0 l/m 9,8 km/h (2 Bft) NO 0,00 h 0 W/m -1,2 C -2,5 C 9,8 km/h (2 Bft)
31.03.2013 03:00 0,6 C 87 % 1011,5 hPa 0,0 l/m 9,6 km/h (2 Bft) O-NO 0,00 h 0 W/m -1,3 C -2,3 C 9,6 km/h (2 Bft)
31.03.2013 04:00 0,6 C 87 % 1011,5 hPa 0,0 l/m 4,8 km/h (1 Bft) NO 0,00 h 0 W/m -1,4 C 0,1 C 4,8 km/h (1 Bft)
31.03.2013 05:00 0,7 C 87 % 1011,5 hPa 0,0 l/m 3,6 km/h (1 Bft) NO 0,00 h 0 W/m -1,2 C 0,7 C 3,6 km/h (1 Bft)
31.03.2013 06:00 0,6 C 87 % 1012,3 hPa 0,0 l/m 5,3 km/h (1 Bft) O-NO 0,00 h 0 W/m -1,3 C -0,1 C 5,3 km/h (1 Bft)
31.03.2013 07:00 0,5 C 87 % 1012,5 hPa 0,0 l/m 5,8 km/h (2 Bft) NO 0,00 h 0 W/m -1,4 C -0,7 C 5,8 km/h (2 Bft)
31.03.2013 08:00 0,7 C 87 % 1012,5 hPa 0,0 l/m 5,6 km/h (2 Bft) O-NO 0,00 h 0 W/m -1,2 C -0,3 C 5,6 km/h (2 Bft)
31.03.2013 09:00 1,1 C 86 % 1013,5 hPa 0,0 l/m 5,5 km/h (2 Bft) O-NO 0,00 h 0 W/m -0,9 C 0,5 C 5,5 km/h (2 Bft)
31.03.2013 10:00 1,9 C 84 % 1013,5 hPa 0,6 l/m 8,2 km/h (2 Bft) O-NO 0,00 h 0 W/m -0,5 C 0,2 C 8,2 km/h (2 Bft)
31.03.2013 11:00 3,6 C 79 % 1013,5 hPa 0,0 l/m 7,4 km/h (2 Bft) NO 0,00 h 0 W/m 0,3 C 2,4 C 7,4 km/h (2 Bft)
31.03.2013 12:00 4,9 C 72 % 1013,5 hPa 0,0 l/m 11,6 km/h (2 Bft) NO 0,00 h 0 W/m 0,3 C 0,9 C 11,6 km/h (2 Bft)
31.03.2013 13:00 5,8 C 67 % 1013,5 hPa 0,0 l/m 15,3 km/h (3 Bft) NO 0,00 h 0 W/m 0,0 C -0,1 C 15,3 km/h (3 Bft)
31.03.2013 14:00 5,1 C 67 % 1013,5 hPa 0,0 l/m 22,1 km/h (4 Bft) N-NO 0,00 h 0 W/m -0,6 C -3,8 C 22,1 km/h (4 Bft)
31.03.2013 15:00 4,4 C 70 % 1013,5 hPa 0,0 l/m 23,0 km/h (4 Bft) NO 0,00 h 0 W/m -0,7 C -5,1 C 23,0 km/h (4 Bft)
31.03.2013 16:00 4,6 C 70 % 1013,5 hPa 0,0 l/m 24,1 km/h (4 Bft) NO 0,00 h 0 W/m -0,4 C -5,2 C 24,1 km/h (4 Bft)
31.03.2013 17:00 4,0 C 71 % 1013,5 hPa 0,0 l/m 22,8 km/h (4 Bft) O-NO 0,00 h 0 W/m -0,8 C -5,5 C 22,8 km/h (4 Bft)
31.03.2013 18:00 3,1 C 74 % 1013,5 hPa 0,0 l/m 21,6 km/h (4 Bft) NO 0,00 h 0 W/m -1,1 C -6,2 C 21,6 km/h (4 Bft)
31.03.2013 19:00 2,8 C 73 % 1013,5 hPa 0,0 l/m 19,6 km/h (3 Bft) NO 0,00 h 0 W/m -1,5 C -5,8 C 19,6 km/h (3 Bft)
31.03.2013 20:00 2,6 C 74 % 1013,5 hPa 0,0 l/m 18,3 km/h (3 Bft) NO 0,00 h 0 W/m -1,6 C -5,4 C 18,3 km/h (3 Bft)
31.03.2013 21:00 2,4 C 75 % 1013,5 hPa 0,0 l/m 19,8 km/h (3 Bft) O-NO 0,00 h 0 W/m -1,6 C -6,4 C 19,8 km/h (3 Bft)
31.03.2013 22:00 2,2 C 78 % 1013,5 hPa 0,0 l/m 14,9 km/h (3 Bft) NO 0,00 h 0 W/m -1,2 C -4,2 C 14,9 km/h (3 Bft)
31.03.2013 23:00 1,9 C 79 % 1013,5 hPa 0,0 l/m 10,1 km/h (2 Bft) NO 0,00 h 0 W/m -1,3 C -1,4 C 10,1 km/h (2 Bft)
Min-Datum _ 25.03.13 25.03.13 30.03.13 - 30.03.13 - - - 25.03.13 25.03.13 30.03.13
_ Min-Zeit 04:00 13:45 02:15 - 07:00 - - - 09:15 08:00 07:00
Minimum _ -1,8 C 50 % 1006,5 hPa - 0,0 km/h (0 Bft) - - - -6,9 C -17,8 C 0,0 km/h (0 Bft)
Max-Datum _ 31.03.13 29.03.13 25.03.13 29.03.13 25.03.13 - 25.03.13 25.03.13 30.03.13 31.03.13 25.03.13
_ Max-Zeit 13:45 07:00 00:00 10:16 08:00 - 00:00 00:00 11:01 11:45 08:00
Maximum _ 6,0 C 87 % 1024,5 hPa 0,6 l/m 39,1 km/h
SO (6 Bft)
- 0,00 h 0 W/m 0,9 C 4,0 C 39,1 km/h
SO (6 Bft)
Durchschnitt _ 1,3 C 75 % 1014,3 hPa #1,8 l/m 16,7 km/h (3 Bft) O-SO #0 min. 0 W/m -2,8 C -5,7 C 16,7 km/h (3 Bft)
copyright by Holger Just